sensor_id;sensor_type;location;lat;lon;timestamp;P1;durP1;ratioP1;P2;durP2;ratioP2
52898;SDS011;38763;53.096;6.062;2023-04-25T00:00:13;14.75;;;3.22;;
52898;SDS011;38763;53.096;6.062;2023-04-25T00:02:39;19.30;;;4.57;;
52898;SDS011;38763;53.096;6.062;2023-04-25T00:05:05;22.10;;;4.10;;
52898;SDS011;38763;53.096;6.062;2023-04-25T00:07:31;24.02;;;3.55;;
52898;SDS011;38763;53.096;6.062;2023-04-25T00:09:57;14.82;;;3.60;;
52898;SDS011;38763;53.096;6.062;2023-04-25T00:12:23;21.50;;;3.75;;
52898;SDS011;38763;53.096;6.062;2023-04-25T00:14:49;20.55;;;3.90;;
52898;SDS011;38763;53.096;6.062;2023-04-25T00:17:16;17.40;;;4.15;;
52898;SDS011;38763;53.096;6.062;2023-04-25T00:19:42;20.92;;;3.80;;
52898;SDS011;38763;53.096;6.062;2023-04-25T00:22:09;18.88;;;4.45;;
52898;SDS011;38763;53.096;6.062;2023-04-25T00:24:35;18.00;;;3.65;;
52898;SDS011;38763;53.096;6.062;2023-04-25T00:27:01;21.90;;;3.78;;
52898;SDS011;38763;53.096;6.062;2023-04-25T00:29:27;16.70;;;3.47;;
52898;SDS011;38763;53.096;6.062;2023-04-25T00:31:52;18.70;;;3.08;;
52898;SDS011;38763;53.096;6.062;2023-04-25T00:34:18;20.35;;;3.65;;
52898;SDS011;38763;53.096;6.062;2023-04-25T00:36:43;14.98;;;3.40;;
52898;SDS011;38763;53.096;6.062;2023-04-25T00:39:09;21.10;;;3.70;;
52898;SDS011;38763;53.096;6.062;2023-04-25T00:41:36;20.33;;;3.50;;
52898;SDS011;38763;53.096;6.062;2023-04-25T00:44:03;20.75;;;3.90;;
52898;SDS011;38763;53.096;6.062;2023-04-25T00:46:30;17.10;;;3.50;;
52898;SDS011;38763;53.096;6.062;2023-04-25T00:48:56;19.90;;;3.50;;
52898;SDS011;38763;53.096;6.062;2023-04-25T00:51:22;20.65;;;3.50;;
52898;SDS011;38763;53.096;6.062;2023-04-25T00:53:49;18.35;;;4.03;;
52898;SDS011;38763;53.096;6.062;2023-04-25T00:56:17;16.33;;;3.20;;
52898;SDS011;38763;53.096;6.062;2023-04-25T00:58:44;19.38;;;3.80;;
52898;SDS011;38763;53.096;6.062;2023-04-25T01:01:10;21.83;;;3.65;;
52898;SDS011;38763;53.096;6.062;2023-04-25T01:03:38;22.58;;;3.50;;
52898;SDS011;38763;53.096;6.062;2023-04-25T01:06:10;16.30;;;3.00;;
52898;SDS011;38763;53.096;6.062;2023-04-25T01:08:37;15.43;;;3.50;;
52898;SDS011;38763;53.096;6.062;2023-04-25T01:11:04;19.65;;;3.35;;
52898;SDS011;38763;53.096;6.062;2023-04-25T01:13:30;22.42;;;3.15;;
52898;SDS011;38763;53.096;6.062;2023-04-25T01:15:57;18.67;;;3.33;;
52898;SDS011;38763;53.096;6.062;2023-04-25T01:18:23;23.05;;;3.33;;
52898;SDS011;38763;53.096;6.062;2023-04-25T01:20:50;16.27;;;3.90;;
52898;SDS011;38763;53.096;6.062;2023-04-25T01:23:17;16.08;;;3.08;;
52898;SDS011;38763;53.096;6.062;2023-04-25T01:25:44;23.35;;;3.58;;
52898;SDS011;38763;53.096;6.062;2023-04-25T01:28:10;15.93;;;3.45;;
52898;SDS011;38763;53.096;6.062;2023-04-25T01:30:36;19.33;;;3.50;;
52898;SDS011;38763;53.096;6.062;2023-04-25T01:33:03;15.48;;;3.13;;
52898;SDS011;38763;53.096;6.062;2023-04-25T01:35:30;20.77;;;3.22;;
52898;SDS011;38763;53.096;6.062;2023-04-25T01:37:57;19.67;;;3.45;;
52898;SDS011;38763;53.096;6.062;2023-04-25T01:40:22;14.32;;;3.10;;
52898;SDS011;38763;53.096;6.062;2023-04-25T01:42:50;15.13;;;3.00;;
52898;SDS011;38763;53.096;6.062;2023-04-25T01:45:16;13.90;;;2.42;;
52898;SDS011;38763;53.096;6.062;2023-04-25T01:47:42;20.67;;;3.08;;
52898;SDS011;38763;53.096;6.062;2023-04-25T01:50:11;14.95;;;2.90;;
52898;SDS011;38763;53.096;6.062;2023-04-25T01:52:37;11.32;;;2.75;;
52898;SDS011;38763;53.096;6.062;2023-04-25T01:55:03;7.72;;;1.75;;
52898;SDS011;38763;53.096;6.062;2023-04-25T01:57:29;14.93;;;2.35;;
52898;SDS011;38763;53.096;6.062;2023-04-25T01:59:57;12.75;;;2.08;;
52898;SDS011;38763;53.096;6.062;2023-04-25T02:02:24;8.07;;;1.55;;
52898;SDS011;38763;53.096;6.062;2023-04-25T02:04:51;13.63;;;1.90;;
52898;SDS011;38763;53.096;6.062;2023-04-25T02:07:16;10.40;;;1.80;;
52898;SDS011;38763;53.096;6.062;2023-04-25T02:09:42;10.05;;;2.10;;
52898;SDS011;38763;53.096;6.062;2023-04-25T02:12:09;11.55;;;2.05;;
52898;SDS011;38763;53.096;6.062;2023-04-25T02:14:35;5.72;;;1.80;;
52898;SDS011;38763;53.096;6.062;2023-04-25T02:17:01;10.90;;;1.98;;
52898;SDS011;38763;53.096;6.062;2023-04-25T02:19:26;8.68;;;1.88;;
52898;SDS011;38763;53.096;6.062;2023-04-25T02:21:52;13.75;;;2.28;;
52898;SDS011;38763;53.096;6.062;2023-04-25T02:24:18;13.43;;;2.42;;
52898;SDS011;38763;53.096;6.062;2023-04-25T02:26:43;13.85;;;2.58;;
52898;SDS011;38763;53.096;6.062;2023-04-25T02:29:09;11.25;;;2.22;;
52898;SDS011;38763;53.096;6.062;2023-04-25T02:31:35;11.52;;;1.95;;
52898;SDS011;38763;53.096;6.062;2023-04-25T02:34:01;12.65;;;2.53;;
52898;SDS011;38763;53.096;6.062;2023-04-25T02:36:26;12.60;;;2.30;;
52898;SDS011;38763;53.096;6.062;2023-04-25T02:38:52;9.80;;;2.33;;
52898;SDS011;38763;53.096;6.062;2023-04-25T02:41:18;11.40;;;2.38;;
52898;SDS011;38763;53.096;6.062;2023-04-25T02:43:43;14.75;;;2.20;;
52898;SDS011;38763;53.096;6.062;2023-04-25T02:46:09;10.88;;;2.00;;
52898;SDS011;38763;53.096;6.062;2023-04-25T02:48:35;12.90;;;2.30;;
52898;SDS011;38763;53.096;6.062;2023-04-25T02:51:00;12.75;;;3.17;;
52898;SDS011;38763;53.096;6.062;2023-04-25T02:53:26;18.02;;;2.85;;
52898;SDS011;38763;53.096;6.062;2023-04-25T02:55:52;13.15;;;2.45;;
52898;SDS011;38763;53.096;6.062;2023-04-25T02:58:18;11.48;;;2.22;;
52898;SDS011;38763;53.096;6.062;2023-04-25T03:00:43;12.15;;;2.35;;
52898;SDS011;38763;53.096;6.062;2023-04-25T03:03:09;15.45;;;2.20;;
52898;SDS011;38763;53.096;6.062;2023-04-25T03:05:35;11.18;;;2.20;;
52898;SDS011;38763;53.096;6.062;2023-04-25T03:08:01;13.48;;;2.33;;
52898;SDS011;38763;53.096;6.062;2023-04-25T03:10:27;14.57;;;2.30;;
52898;SDS011;38763;53.096;6.062;2023-04-25T03:12:52;10.30;;;2.08;;
52898;SDS011;38763;53.096;6.062;2023-04-25T03:15:18;11.35;;;1.80;;
52898;SDS011;38763;53.096;6.062;2023-04-25T03:17:44;13.38;;;2.08;;
52898;SDS011;38763;53.096;6.062;2023-04-25T03:20:10;5.82;;;1.75;;
52898;SDS011;38763;53.096;6.062;2023-04-25T03:22:36;6.70;;;1.67;;
52898;SDS011;38763;53.096;6.062;2023-04-25T03:25:02;7.57;;;1.75;;
52898;SDS011;38763;53.096;6.062;2023-04-25T03:27:27;8.20;;;2.17;;
52898;SDS011;38763;53.096;6.062;2023-04-25T03:29:53;12.10;;;1.67;;
52898;SDS011;38763;53.096;6.062;2023-04-25T03:32:18;8.48;;;1.80;;
52898;SDS011;38763;53.096;6.062;2023-04-25T03:34:44;7.43;;;1.55;;
52898;SDS011;38763;53.096;6.062;2023-04-25T03:37:10;8.30;;;1.90;;
52898;SDS011;38763;53.096;6.062;2023-04-25T03:39:36;11.85;;;1.95;;
52898;SDS011;38763;53.096;6.062;2023-04-25T03:42:02;7.38;;;1.88;;
52898;SDS011;38763;53.096;6.062;2023-04-25T03:44:28;8.05;;;1.73;;
52898;SDS011;38763;53.096;6.062;2023-04-25T03:46:53;11.02;;;2.13;;
52898;SDS011;38763;53.096;6.062;2023-04-25T03:49:19;13.77;;;2.00;;
52898;SDS011;38763;53.096;6.062;2023-04-25T03:51:45;15.27;;;2.33;;
52898;SDS011;38763;53.096;6.062;2023-04-25T03:54:10;15.82;;;2.15;;
52898;SDS011;38763;53.096;6.062;2023-04-25T03:56:36;11.45;;;2.13;;
52898;SDS011;38763;53.096;6.062;2023-04-25T03:59:02;11.88;;;2.20;;
52898;SDS011;38763;53.096;6.062;2023-04-25T04:01:27;16.67;;;2.15;;
52898;SDS011;38763;53.096;6.062;2023-04-25T04:03:53;11.43;;;2.33;;
52898;SDS011;38763;53.096;6.062;2023-04-25T04:06:18;13.90;;;2.70;;
52898;SDS011;38763;53.096;6.062;2023-04-25T04:08:45;14.70;;;2.10;;
52898;SDS011;38763;53.096;6.062;2023-04-25T04:11:11;11.35;;;2.35;;
52898;SDS011;38763;53.096;6.062;2023-04-25T04:13:37;10.70;;;1.75;;
52898;SDS011;38763;53.096;6.062;2023-04-25T04:16:03;14.95;;;2.42;;
52898;SDS011;38763;53.096;6.062;2023-04-25T04:18:29;8.75;;;2.20;;
52898;SDS011;38763;53.096;6.062;2023-04-25T04:20:55;14.27;;;2.58;;
52898;SDS011;38763;53.096;6.062;2023-04-25T04:23:23;19.05;;;2.35;;
52898;SDS011;38763;53.096;6.062;2023-04-25T04:25:49;13.32;;;2.30;;
52898;SDS011;38763;53.096;6.062;2023-04-25T04:28:14;12.35;;;1.98;;
52898;SDS011;38763;53.096;6.062;2023-04-25T04:30:41;11.65;;;2.00;;
52898;SDS011;38763;53.096;6.062;2023-04-25T04:33:07;8.40;;;2.20;;
52898;SDS011;38763;53.096;6.062;2023-04-25T04:35:34;11.02;;;1.75;;
52898;SDS011;38763;53.096;6.062;2023-04-25T04:38:00;13.70;;;1.90;;
52898;SDS011;38763;53.096;6.062;2023-04-25T04:40:25;11.93;;;2.35;;
52898;SDS011;38763;53.096;6.062;2023-04-25T04:42:51;13.07;;;2.10;;
52898;SDS011;38763;53.096;6.062;2023-04-25T04:45:18;18.02;;;2.40;;
52898;SDS011;38763;53.096;6.062;2023-04-25T04:47:44;17.00;;;2.20;;
52898;SDS011;38763;53.096;6.062;2023-04-25T04:50:10;12.65;;;2.10;;
52898;SDS011;38763;53.096;6.062;2023-04-25T04:52:36;11.52;;;2.13;;
52898;SDS011;38763;53.096;6.062;2023-04-25T04:55:03;14.02;;;2.15;;
52898;SDS011;38763;53.096;6.062;2023-04-25T04:57:30;9.80;;;1.90;;
52898;SDS011;38763;53.096;6.062;2023-04-25T04:59:58;15.27;;;2.20;;
52898;SDS011;38763;53.096;6.062;2023-04-25T05:02:24;9.02;;;1.75;;
52898;SDS011;38763;53.096;6.062;2023-04-25T05:04:50;13.40;;;2.13;;
52898;SDS011;38763;53.096;6.062;2023-04-25T05:07:16;13.60;;;1.60;;
52898;SDS011;38763;53.096;6.062;2023-04-25T05:09:42;11.23;;;2.00;;
52898;SDS011;38763;53.096;6.062;2023-04-25T05:12:08;11.25;;;1.63;;
52898;SDS011;38763;53.096;6.062;2023-04-25T05:14:34;11.15;;;1.67;;
52898;SDS011;38763;53.096;6.062;2023-04-25T05:17:00;11.63;;;1.83;;
52898;SDS011;38763;53.096;6.062;2023-04-25T05:19:25;8.70;;;1.55;;
52898;SDS011;38763;53.096;6.062;2023-04-25T05:21:51;9.43;;;1.77;;
52898;SDS011;38763;53.096;6.062;2023-04-25T05:24:17;8.93;;;1.40;;
52898;SDS011;38763;53.096;6.062;2023-04-25T05:26:43;6.88;;;1.70;;
52898;SDS011;38763;53.096;6.062;2023-04-25T05:29:08;10.25;;;1.45;;
52898;SDS011;38763;53.096;6.062;2023-04-25T05:31:35;7.97;;;1.50;;
52898;SDS011;38763;53.096;6.062;2023-04-25T05:34:01;8.18;;;1.80;;
52898;SDS011;38763;53.096;6.062;2023-04-25T05:36:27;9.98;;;1.63;;
52898;SDS011;38763;53.096;6.062;2023-04-25T05:38:53;12.57;;;1.83;;
52898;SDS011;38763;53.096;6.062;2023-04-25T05:41:18;10.25;;;2.00;;
52898;SDS011;38763;53.096;6.062;2023-04-25T05:43:45;9.80;;;1.70;;
52898;SDS011;38763;53.096;6.062;2023-04-25T05:46:12;9.10;;;1.75;;
52898;SDS011;38763;53.096;6.062;2023-04-25T05:48:38;10.18;;;1.73;;
52898;SDS011;38763;53.096;6.062;2023-04-25T05:51:04;9.23;;;1.60;;
52898;SDS011;38763;53.096;6.062;2023-04-25T05:53:30;6.53;;;1.75;;
52898;SDS011;38763;53.096;6.062;2023-04-25T05:55:56;13.75;;;1.92;;
52898;SDS011;38763;53.096;6.062;2023-04-25T05:58:21;10.50;;;1.92;;
52898;SDS011;38763;53.096;6.062;2023-04-25T06:00:47;10.82;;;1.88;;
52898;SDS011;38763;53.096;6.062;2023-04-25T06:03:13;14.15;;;2.03;;
52898;SDS011;38763;53.096;6.062;2023-04-25T06:05:42;8.10;;;1.42;;
52898;SDS011;38763;53.096;6.062;2023-04-25T06:08:08;8.57;;;1.75;;
52898;SDS011;38763;53.096;6.062;2023-04-25T06:10:34;10.77;;;1.90;;
52898;SDS011;38763;53.096;6.062;2023-04-25T06:13:01;9.93;;;1.55;;
52898;SDS011;38763;53.096;6.062;2023-04-25T06:15:26;10.10;;;1.67;;
52898;SDS011;38763;53.096;6.062;2023-04-25T06:17:52;8.50;;;1.60;;
52898;SDS011;38763;53.096;6.062;2023-04-25T06:20:18;9.02;;;1.58;;
52898;SDS011;38763;53.096;6.062;2023-04-25T06:22:48;5.43;;;1.30;;
52898;SDS011;38763;53.096;6.062;2023-04-25T06:25:14;13.45;;;1.67;;
52898;SDS011;38763;53.096;6.062;2023-04-25T06:27:40;10.50;;;1.40;;
52898;SDS011;38763;53.096;6.062;2023-04-25T06:30:05;5.10;;;1.10;;
52898;SDS011;38763;53.096;6.062;2023-04-25T06:32:32;5.57;;;1.40;;
52898;SDS011;38763;53.096;6.062;2023-04-25T06:34:59;5.15;;;1.20;;
52898;SDS011;38763;53.096;6.062;2023-04-25T06:37:25;6.07;;;1.10;;
52898;SDS011;38763;53.096;6.062;2023-04-25T06:39:50;8.10;;;0.95;;
52898;SDS011;38763;53.096;6.062;2023-04-25T06:42:16;4.70;;;1.30;;
52898;SDS011;38763;53.096;6.062;2023-04-25T06:44:42;6.95;;;1.30;;
52898;SDS011;38763;53.096;6.062;2023-04-25T06:47:07;9.35;;;1.45;;
52898;SDS011;38763;53.096;6.062;2023-04-25T06:49:33;7.22;;;1.40;;
52898;SDS011;38763;53.096;6.062;2023-04-25T06:51:59;10.48;;;1.60;;
52898;SDS011;38763;53.096;6.062;2023-04-25T06:54:24;9.07;;;1.50;;
52898;SDS011;38763;53.096;6.062;2023-04-25T06:56:52;13.00;;;1.73;;
52898;SDS011;38763;53.096;6.062;2023-04-25T06:59:18;10.32;;;1.65;;
52898;SDS011;38763;53.096;6.062;2023-04-25T07:01:44;13.13;;;1.83;;
52898;SDS011;38763;53.096;6.062;2023-04-25T07:04:10;8.77;;;1.65;;
52898;SDS011;38763;53.096;6.062;2023-04-25T07:06:36;11.57;;;1.85;;
52898;SDS011;38763;53.096;6.062;2023-04-25T07:09:07;11.70;;;2.42;;
52898;SDS011;38763;53.096;6.062;2023-04-25T07:11:33;8.82;;;1.75;;
52898;SDS011;38763;53.096;6.062;2023-04-25T07:13:59;11.52;;;1.83;;
52898;SDS011;38763;53.096;6.062;2023-04-25T07:16:25;16.52;;;2.20;;
52898;SDS011;38763;53.096;6.062;2023-04-25T07:18:51;14.85;;;1.63;;
52898;SDS011;38763;53.096;6.062;2023-04-25T07:21:16;9.30;;;1.55;;
52898;SDS011;38763;53.096;6.062;2023-04-25T07:23:42;9.63;;;1.52;;
52898;SDS011;38763;53.096;6.062;2023-04-25T07:26:08;10.80;;;1.52;;
52898;SDS011;38763;53.096;6.062;2023-04-25T07:28:33;6.43;;;1.60;;
52898;SDS011;38763;53.096;6.062;2023-04-25T07:30:59;9.25;;;1.75;;
52898;SDS011;38763;53.096;6.062;2023-04-25T07:33:24;7.47;;;1.48;;
52898;SDS011;38763;53.096;6.062;2023-04-25T07:35:50;8.73;;;1.90;;
52898;SDS011;38763;53.096;6.062;2023-04-25T07:38:17;11.32;;;1.90;;
52898;SDS011;38763;53.096;6.062;2023-04-25T07:40:42;11.00;;;1.67;;
52898;SDS011;38763;53.096;6.062;2023-04-25T07:43:08;11.00;;;1.73;;
52898;SDS011;38763;53.096;6.062;2023-04-25T07:45:33;6.07;;;1.50;;
52898;SDS011;38763;53.096;6.062;2023-04-25T07:47:59;10.32;;;1.73;;
52898;SDS011;38763;53.096;6.062;2023-04-25T07:50:25;10.55;;;1.75;;
52898;SDS011;38763;53.096;6.062;2023-04-25T07:52:50;10.93;;;1.70;;
52898;SDS011;38763;53.096;6.062;2023-04-25T07:55:16;9.35;;;1.55;;
52898;SDS011;38763;53.096;6.062;2023-04-25T07:57:42;11.27;;;1.73;;
52898;SDS011;38763;53.096;6.062;2023-04-25T08:00:07;14.02;;;1.98;;
52898;SDS011;38763;53.096;6.062;2023-04-25T08:02:37;9.80;;;1.70;;
52898;SDS011;38763;53.096;6.062;2023-04-25T08:05:03;10.15;;;1.98;;
52898;SDS011;38763;53.096;6.062;2023-04-25T08:07:28;9.48;;;1.67;;
52898;SDS011;38763;53.096;6.062;2023-04-25T08:09:54;7.30;;;1.50;;
52898;SDS011;38763;53.096;6.062;2023-04-25T08:12:20;8.10;;;2.03;;
52898;SDS011;38763;53.096;6.062;2023-04-25T08:14:45;10.35;;;1.80;;
52898;SDS011;38763;53.096;6.062;2023-04-25T08:17:11;8.35;;;1.55;;
52898;SDS011;38763;53.096;6.062;2023-04-25T08:19:37;14.55;;;1.85;;
52898;SDS011;38763;53.096;6.062;2023-04-25T08:22:02;11.65;;;1.40;;
52898;SDS011;38763;53.096;6.062;2023-04-25T08:24:28;11.00;;;1.60;;
52898;SDS011;38763;53.096;6.062;2023-04-25T08:26:54;9.27;;;1.42;;
52898;SDS011;38763;53.096;6.062;2023-04-25T08:29:19;10.25;;;1.85;;
52898;SDS011;38763;53.096;6.062;2023-04-25T08:31:45;10.27;;;1.60;;
52898;SDS011;38763;53.096;6.062;2023-04-25T08:34:13;8.45;;;1.67;;
52898;SDS011;38763;53.096;6.062;2023-04-25T08:36:38;7.82;;;1.95;;
52898;SDS011;38763;53.096;6.062;2023-04-25T08:39:04;7.15;;;1.27;;
52898;SDS011;38763;53.096;6.062;2023-04-25T08:41:30;7.05;;;1.55;;
52898;SDS011;38763;53.096;6.062;2023-04-25T08:43:56;7.32;;;1.48;;
52898;SDS011;38763;53.096;6.062;2023-04-25T08:46:25;9.75;;;1.55;;
52898;SDS011;38763;53.096;6.062;2023-04-25T08:48:51;8.43;;;1.55;;
52898;SDS011;38763;53.096;6.062;2023-04-25T08:51:22;11.50;;;1.67;;
52898;SDS011;38763;53.096;6.062;2023-04-25T08:53:53;12.27;;;2.30;;
52898;SDS011;38763;53.096;6.062;2023-04-25T08:56:19;6.78;;;1.15;;
52898;SDS011;38763;53.096;6.062;2023-04-25T08:58:50;10.65;;;1.63;;
52898;SDS011;38763;53.096;6.062;2023-04-25T09:01:16;9.18;;;1.88;;
52898;SDS011;38763;53.096;6.062;2023-04-25T09:03:43;6.15;;;1.23;;
52898;SDS011;38763;53.096;6.062;2023-04-25T09:06:10;8.05;;;1.70;;
52898;SDS011;38763;53.096;6.062;2023-04-25T09:08:36;6.70;;;1.25;;
52898;SDS011;38763;53.096;6.062;2023-04-25T09:11:02;7.90;;;1.63;;
52898;SDS011;38763;53.096;6.062;2023-04-25T09:13:28;9.73;;;1.40;;
52898;SDS011;38763;53.096;6.062;2023-04-25T09:15:55;7.57;;;1.30;;
52898;SDS011;38763;53.096;6.062;2023-04-25T09:18:22;6.03;;;1.40;;
52898;SDS011;38763;53.096;6.062;2023-04-25T09:20:50;9.75;;;1.60;;
52898;SDS011;38763;53.096;6.062;2023-04-25T09:23:18;7.28;;;1.55;;
52898;SDS011;38763;53.096;6.062;2023-04-25T09:25:47;7.60;;;1.50;;
52898;SDS011;38763;53.096;6.062;2023-04-25T09:28:13;7.35;;;1.42;;
52898;SDS011;38763;53.096;6.062;2023-04-25T09:30:39;7.78;;;1.58;;
52898;SDS011;38763;53.096;6.062;2023-04-25T09:33:05;13.90;;;2.10;;
52898;SDS011;38763;53.096;6.062;2023-04-25T09:35:39;8.45;;;1.30;;
52898;SDS011;38763;53.096;6.062;2023-04-25T09:38:10;8.88;;;1.20;;
52898;SDS011;38763;53.096;6.062;2023-04-25T09:40:40;10.32;;;1.88;;
52898;SDS011;38763;53.096;6.062;2023-04-25T09:43:24;9.77;;;1.30;;
52898;SDS011;38763;53.096;6.062;2023-04-25T09:45:51;6.40;;;1.52;;
52898;SDS011;38763;53.096;6.062;2023-04-25T09:48:19;6.32;;;1.20;;
52898;SDS011;38763;53.096;6.062;2023-04-25T09:51:04;8.02;;;1.30;;
52898;SDS011;38763;53.096;6.062;2023-04-25T09:53:37;7.72;;;1.52;;
52898;SDS011;38763;53.096;6.062;2023-04-25T09:56:04;12.13;;;1.70;;
52898;SDS011;38763;53.096;6.062;2023-04-25T09:58:35;7.75;;;1.70;;
52898;SDS011;38763;53.096;6.062;2023-04-25T10:01:02;7.35;;;1.40;;
52898;SDS011;38763;53.096;6.062;2023-04-25T10:03:33;8.07;;;1.92;;
52898;SDS011;38763;53.096;6.062;2023-04-25T10:06:00;9.85;;;1.50;;
52898;SDS011;38763;53.096;6.062;2023-04-25T10:08:33;6.82;;;1.60;;
52898;SDS011;38763;53.096;6.062;2023-04-25T10:11:04;6.45;;;1.38;;
52898;SDS011;38763;53.096;6.062;2023-04-25T10:13:33;8.27;;;1.55;;
52898;SDS011;38763;53.096;6.062;2023-04-25T10:16:00;4.05;;;1.15;;
52898;SDS011;38763;53.096;6.062;2023-04-25T10:18:28;7.20;;;1.45;;
52898;SDS011;38763;53.096;6.062;2023-04-25T10:20:54;8.65;;;1.63;;
52898;SDS011;38763;53.096;6.062;2023-04-25T10:23:21;9.90;;;1.50;;
52898;SDS011;38763;53.096;6.062;2023-04-25T10:25:49;6.78;;;1.23;;
52898;SDS011;38763;53.096;6.062;2023-04-25T10:28:18;8.05;;;1.75;;
52898;SDS011;38763;53.096;6.062;2023-04-25T10:31:00;9.50;;;1.75;;
52898;SDS011;38763;53.096;6.062;2023-04-25T10:33:34;9.40;;;1.88;;
52898;SDS011;38763;53.096;6.062;2023-04-25T10:36:14;11.57;;;1.67;;
52898;SDS011;38763;53.096;6.062;2023-04-25T10:38:43;6.88;;;1.52;;
52898;SDS011;38763;53.096;6.062;2023-04-25T10:41:09;6.72;;;1.33;;
52898;SDS011;38763;53.096;6.062;2023-04-25T10:48:45;6.25;;;1.38;;
52898;SDS011;38763;53.096;6.062;2023-04-25T10:56:20;16.30;;;1.67;;
52898;SDS011;38763;53.096;6.062;2023-04-25T10:58:47;10.40;;;1.70;;
52898;SDS011;38763;53.096;6.062;2023-04-25T11:01:14;7.97;;;1.80;;
52898;SDS011;38763;53.096;6.062;2023-04-25T11:03:44;5.15;;;1.13;;
52898;SDS011;38763;53.096;6.062;2023-04-25T11:08:53;6.90;;;1.40;;
52898;SDS011;38763;53.096;6.062;2023-04-25T11:11:18;10.20;;;1.52;;
52898;SDS011;38763;53.096;6.062;2023-04-25T11:13:48;6.38;;;1.40;;
52898;SDS011;38763;53.096;6.062;2023-04-25T11:16:15;6.18;;;1.45;;
52898;SDS011;38763;53.096;6.062;2023-04-25T11:18:41;11.75;;;1.80;;
52898;SDS011;38763;53.096;6.062;2023-04-25T11:21:07;12.25;;;1.80;;
52898;SDS011;38763;53.096;6.062;2023-04-25T11:23:33;13.02;;;2.03;;
52898;SDS011;38763;53.096;6.062;2023-04-25T11:25:59;7.90;;;1.67;;
52898;SDS011;38763;53.096;6.062;2023-04-25T11:28:26;6.68;;;1.50;;
52898;SDS011;38763;53.096;6.062;2023-04-25T11:30:52;8.55;;;1.98;;
52898;SDS011;38763;53.096;6.062;2023-04-25T11:33:18;7.30;;;1.50;;
52898;SDS011;38763;53.096;6.062;2023-04-25T11:35:48;8.13;;;1.85;;
52898;SDS011;38763;53.096;6.062;2023-04-25T11:38:13;11.20;;;1.88;;
52898;SDS011;38763;53.096;6.062;2023-04-25T11:40:39;9.05;;;1.55;;
52898;SDS011;38763;53.096;6.062;2023-04-25T11:43:05;8.93;;;1.58;;
52898;SDS011;38763;53.096;6.062;2023-04-25T11:45:32;7.28;;;1.52;;
52898;SDS011;38763;53.096;6.062;2023-04-25T11:47:57;6.22;;;1.40;;
52898;SDS011;38763;53.096;6.062;2023-04-25T11:50:23;8.82;;;1.73;;
52898;SDS011;38763;53.096;6.062;2023-04-25T11:52:49;6.70;;;1.40;;
52898;SDS011;38763;53.096;6.062;2023-04-25T11:55:18;6.20;;;1.58;;
52898;SDS011;38763;53.096;6.062;2023-04-25T11:57:46;10.50;;;1.60;;
52898;SDS011;38763;53.096;6.062;2023-04-25T12:00:16;6.43;;;1.50;;
52898;SDS011;38763;53.096;6.062;2023-04-25T12:02:46;7.68;;;1.58;;
52898;SDS011;38763;53.096;6.062;2023-04-25T12:05:13;7.57;;;1.48;;
52898;SDS011;38763;53.096;6.062;2023-04-25T12:07:42;7.70;;;1.42;;
52898;SDS011;38763;53.096;6.062;2023-04-25T12:10:09;3.83;;;1.05;;
52898;SDS011;38763;53.096;6.062;2023-04-25T12:12:37;3.20;;;1.05;;
52898;SDS011;38763;53.096;6.062;2023-04-25T12:15:09;8.27;;;1.30;;
52898;SDS011;38763;53.096;6.062;2023-04-25T12:17:47;9.18;;;1.67;;
52898;SDS011;38763;53.096;6.062;2023-04-25T12:20:15;6.07;;;1.60;;
52898;SDS011;38763;53.096;6.062;2023-04-25T12:22:43;9.10;;;1.60;;
52898;SDS011;38763;53.096;6.062;2023-04-25T12:25:52;8.32;;;1.90;;
52898;SDS011;38763;53.096;6.062;2023-04-25T12:28:13;5.55;;;1.40;;
52898;SDS011;38763;53.096;6.062;2023-04-25T12:31:04;5.93;;;1.50;;
52898;SDS011;38763;53.096;6.062;2023-04-25T12:33:35;8.85;;;1.30;;
52898;SDS011;38763;53.096;6.062;2023-04-25T12:36:03;10.65;;;1.80;;
52898;SDS011;38763;53.096;6.062;2023-04-25T12:38:42;7.20;;;1.42;;
52898;SDS011;38763;53.096;6.062;2023-04-25T12:41:08;10.23;;;1.40;;
52898;SDS011;38763;53.096;6.062;2023-04-25T12:43:34;8.38;;;1.30;;
52898;SDS011;38763;53.096;6.062;2023-04-25T12:46:00;5.90;;;1.10;;
52898;SDS011;38763;53.096;6.062;2023-04-25T12:48:26;6.32;;;1.25;;
52898;SDS011;38763;53.096;6.062;2023-04-25T12:50:52;7.05;;;1.15;;
52898;SDS011;38763;53.096;6.062;2023-04-25T12:53:18;6.72;;;1.30;;
52898;SDS011;38763;53.096;6.062;2023-04-25T12:55:46;6.70;;;1.00;;
52898;SDS011;38763;53.096;6.062;2023-04-25T12:58:15;6.20;;;1.70;;
52898;SDS011;38763;53.096;6.062;2023-04-25T13:00:42;10.52;;;1.73;;
52898;SDS011;38763;53.096;6.062;2023-04-25T13:03:09;11.40;;;1.80;;
52898;SDS011;38763;53.096;6.062;2023-04-25T13:05:36;5.65;;;1.20;;
52898;SDS011;38763;53.096;6.062;2023-04-25T13:08:02;9.90;;;1.80;;
52898;SDS011;38763;53.096;6.062;2023-04-25T13:10:28;8.68;;;1.85;;
52898;SDS011;38763;53.096;6.062;2023-04-25T13:12:54;10.32;;;1.52;;
52898;SDS011;38763;53.096;6.062;2023-04-25T13:15:19;7.72;;;1.55;;
52898;SDS011;38763;53.096;6.062;2023-04-25T13:17:45;8.00;;;1.20;;
52898;SDS011;38763;53.096;6.062;2023-04-25T13:20:11;4.63;;;1.40;;
52898;SDS011;38763;53.096;6.062;2023-04-25T13:22:38;9.07;;;1.52;;
52898;SDS011;38763;53.096;6.062;2023-04-25T13:25:05;7.65;;;1.40;;
52898;SDS011;38763;53.096;6.062;2023-04-25T13:27:32;6.72;;;1.40;;
52898;SDS011;38763;53.096;6.062;2023-04-25T13:30:05;7.57;;;1.42;;
52898;SDS011;38763;53.096;6.062;2023-04-25T13:32:34;7.90;;;1.58;;
52898;SDS011;38763;53.096;6.062;2023-04-25T13:35:04;9.40;;;1.67;;
52898;SDS011;38763;53.096;6.062;2023-04-25T13:37:31;5.70;;;1.30;;
52898;SDS011;38763;53.096;6.062;2023-04-25T13:40:00;5.97;;;1.30;;
52898;SDS011;38763;53.096;6.062;2023-04-25T13:42:29;10.13;;;1.98;;
52898;SDS011;38763;53.096;6.062;2023-04-25T13:44:55;12.75;;;1.67;;
52898;SDS011;38763;53.096;6.062;2023-04-25T13:47:21;13.13;;;1.92;;
52898;SDS011;38763;53.096;6.062;2023-04-25T13:49:48;6.07;;;1.35;;
52898;SDS011;38763;53.096;6.062;2023-04-25T13:52:14;9.80;;;2.47;;
52898;SDS011;38763;53.096;6.062;2023-04-25T13:54:40;11.48;;;1.85;;
52898;SDS011;38763;53.096;6.062;2023-04-25T13:57:05;9.40;;;2.05;;
52898;SDS011;38763;53.096;6.062;2023-04-25T13:59:31;8.48;;;1.63;;
52898;SDS011;38763;53.096;6.062;2023-04-25T14:01:57;9.05;;;1.70;;
52898;SDS011;38763;53.096;6.062;2023-04-25T14:04:23;11.15;;;1.70;;
52898;SDS011;38763;53.096;6.062;2023-04-25T14:06:50;10.30;;;1.67;;
52898;SDS011;38763;53.096;6.062;2023-04-25T14:09:16;8.50;;;1.60;;
52898;SDS011;38763;53.096;6.062;2023-04-25T14:11:42;10.25;;;1.75;;
52898;SDS011;38763;53.096;6.062;2023-04-25T14:14:08;8.23;;;1.40;;
52898;SDS011;38763;53.096;6.062;2023-04-25T14:16:34;6.13;;;1.30;;
52898;SDS011;38763;53.096;6.062;2023-04-25T14:19:00;9.48;;;1.83;;
52898;SDS011;38763;53.096;6.062;2023-04-25T14:21:26;8.57;;;1.38;;
52898;SDS011;38763;53.096;6.062;2023-04-25T14:23:53;6.88;;;1.55;;
52898;SDS011;38763;53.096;6.062;2023-04-25T14:26:19;5.22;;;1.35;;
52898;SDS011;38763;53.096;6.062;2023-04-25T14:28:45;6.32;;;1.30;;
52898;SDS011;38763;53.096;6.062;2023-04-25T14:31:11;8.00;;;1.17;;
52898;SDS011;38763;53.096;6.062;2023-04-25T14:33:36;4.13;;;0.95;;
52898;SDS011;38763;53.096;6.062;2023-04-25T14:36:04;5.05;;;1.27;;
52898;SDS011;38763;53.096;6.062;2023-04-25T14:38:30;16.42;;;1.30;;
52898;SDS011;38763;53.096;6.062;2023-04-25T14:40:56;7.30;;;1.20;;
52898;SDS011;38763;53.096;6.062;2023-04-25T14:43:21;6.50;;;1.40;;
52898;SDS011;38763;53.096;6.062;2023-04-25T14:45:47;9.57;;;1.55;;
52898;SDS011;38763;53.096;6.062;2023-04-25T14:48:13;7.28;;;1.33;;
52898;SDS011;38763;53.096;6.062;2023-04-25T14:50:38;10.55;;;1.40;;